^^
Meteo Knjazevac Station Historical Data
Daily Summary for May 25, 2021 Units:  English    Metric   Both
Daily Weekly Monthly Yearly Custom
  High: Low: Average:
Temperature: 62.2 °F 60.6 °F 61.1 °F
Dew Point: 58.9 °F 57.2 °F 57.9 °F
Humidity: 93% 86% 89%
Wind Speed: 2mph 0mph 0.8mph
Wind Gust: 8mph - -
Wind- - SW
Pressure: 30.20 in 30.18 in -
Precipitation: 0.00 in    
Historical Graphs
 
 
Tabular Data for May 25, 2021
Time Temperature Dew Point Pressure Wind Wind Speed Wind Gust Humidity Rainfall Rate (Hourly) solar Conditions
00:00 62.2 °F 58 °F 30.19 in SSE 1 mph 5 mph 86% 0.00 in 0 W/m2
00:10 62.1 °F 57.8 °F 30.19 in Calm   2 mph 86% 0.00 in 0 W/m2
00:20 61.9 °F 57.6 °F 30.18 in South 1 mph 3 mph 86% 0.00 in 0 W/m2
00:30 61.7 °F 58.1 °F 30.19 in Calm   3 mph 88% 0.00 in 0 W/m2
00:40 61.5 °F 57.9 °F 30.18 in Calm   1 mph 88% 0.00 in 0 W/m2
00:50 61.5 °F 57.9 °F 30.18 in Calm     88% 0.00 in 0 W/m2
01:00 61.5 °F 58.2 °F 30.18 in Calm   2 mph 89% 0.00 in 0 W/m2
01:10 61.3 °F 58.1 °F 30.18 in Calm   1 mph 89% 0.00 in 0 W/m2
01:20 61.3 °F 58.1 °F 30.19 in Calm   2 mph 89% 0.00 in 0 W/m2
01:30 61.3 °F 58.1 °F 30.19 in Calm   1 mph 89% 0.00 in 0 W/m2
01:40 61.2 °F 57.9 °F 30.19 in Calm   2 mph 89% 0.00 in 0 W/m2
01:50 61.2 °F 58.2 °F 30.19 in West 1 mph 2 mph 90% 0.00 in 0 W/m2
02:00 61.2 °F 57.9 °F 30.18 in ENE 1 mph 3 mph 89% 0.00 in 0 W/m2
02:10 61.1 °F 57.8 °F 30.18 in SE 1 mph 4 mph 89% 0.00 in 0 W/m2
02:20 61 °F 57.7 °F 30.18 in SW 1 mph 3 mph 89% 0.00 in 0 W/m2
02:30 61 °F 58 °F 30.18 in West 2 mph 3 mph 90% 0.00 in 0 W/m2
02:40 61 °F 58 °F 30.19 in NNW 2 mph 4 mph 90% 0.00 in 0 W/m2
02:50 61.2 °F 57.9 °F 30.20 in NNE 2 mph 4 mph 89% 0.00 in 0 W/m2
03:00 61.2 °F 58.2 °F 30.19 in NE 1 mph 6 mph 90% 0.00 in 0 W/m2
03:10 61 °F 58.9 °F 30.20 in NE 1 mph 7 mph 93% 0.00 in 0 W/m2
03:20 61 °F 58.3 °F 30.19 in NW 2 mph 7 mph 91% 0.00 in 0 W/m2
03:30 61 °F 58.6 °F 30.19 in Calm   7 mph 92% 0.00 in 0 W/m2
03:40 61 °F 58.3 °F 30.19 in Calm   2 mph 91% 0.00 in 0 W/m2
03:50 60.8 °F 58.2 °F 30.19 in NNW 1 mph 3 mph 91% 0.00 in 0 W/m2
04:00 60.8 °F 58.8 °F 30.19 in NW 1 mph 2 mph 93% 0.00 in 0 W/m2
04:10 60.8 °F 58.2 °F 30.20 in Calm   3 mph 91% 0.00 in 0 W/m2
04:20 61 °F 58 °F 30.19 in North 2 mph 7 mph 90% 0.00 in 0 W/m2
04:30 60.8 °F 58.2 °F 30.20 in North 2 mph 6 mph 91% 0.00 in 0 W/m2
04:40 60.8 °F 57.5 °F 30.19 in North 1 mph 8 mph 89% 0.00 in 0 W/m2
04:50 60.8 °F 57.5 °F 30.19 in Calm   6 mph 89% 0.00 in 0 W/m2
05:00 60.8 °F 57.2 °F 30.19 in NNW 2 mph 5 mph 88% 0.00 in 1 W/m2
05:10 60.6 °F 57.4 °F 30.20 in NW 1 mph 5 mph 89% 0.00 in 4 W/m2
05:20 60.6 °F 57.4 °F 30.20 in Calm   2 mph 89% 0.00 in 11 W/m2
05:30 60.6 °F 57.4 °F 30.20 in NW 1 mph 2 mph 89% 0.00 in 18 W/m2
05:40 60.6 °F 57.4 °F 30.20 in Calm   2 mph 89% 0.00 in 20 W/m2
05:50 60.6 °F 57.4 °F 30.20 in Calm   2 mph 89% 0.00 in 18 W/m2
Knjazevac, Serbia
Compliments of Weather Underground - 2 mb